Burnham-on-Sea, United Kingdom
Current Conditions -  °F | °C
As of 1:50 AM on Sunday 26 Oct 2014 (Local Time) from EGGD Reporting Station
Broken Clouds Broken Clouds  
Wind Chill: 52°   Ceiling: 3000
Heat Index: 52°   Visibility: 6mi
Dew Point: 46°   Wind: 12mph
Humidity: 82%   Direction: 210°SSW
Pressure: 30.12"   Gusts: NA
Location:  51.23°N, 3°W
Report Text: EGGD 260050Z 21010KT 9999 BKN030 11/08 Q1020
Loading
Personal Weather Stations






























Interactive Weather Map New forecast layout! Learn more

10-Day Weather Forecast

Advertisements
Track Severe Weather on mobile